Time;durP1;ratioP1;P1;durP2;ratioP2;P2;SDS_P1;SDS_P2;PMS_P1;PMS_P2;Temp;Humidity;BMP_temperature;BMP_pressure;BME280_temperature;BME280_humidity;BME280_pressure;Samples;Min_cycle;Max_cycle;Signal;HPM_P1;HPM_P2
2023/02/20 00:01:31;;;;;;;4.65;1.25;;;16.70;49.30;;;;;;5074356;28;20210;-69
2023/02/20 00:03:58;;;;;;;2.33;1.10;;;16.70;49.30;;;;;;5074837;28;20187;-66
2023/02/20 00:06:25;;;;;;;1.75;1.25;;;16.70;49.20;;;;;;5074637;28;20272;-67
2023/02/20 00:08:52;;;;;;;2.33;1.30;;;16.70;49.30;;;;;;5074843;28;20187;-69
2023/02/20 00:11:19;;;;;;;2.22;1.15;;;16.60;49.10;;;;;;5074717;28;20215;-68
2023/02/20 00:13:47;;;;;;;2.20;1.38;;;16.70;49.20;;;;;;5074383;28;20191;-68
2023/02/20 00:16:14;;;;;;;3.60;1.33;;;16.70;49.20;;;;;;5074275;28;20352;-69
2023/02/20 00:18:43;;;;;;;4.10;1.20;;;16.70;49.20;;;;;;5074540;28;20199;-66
2023/02/20 00:21:10;;;;;;;3.65;1.42;;;16.70;49.20;;;;;;5074634;28;20287;-67
2023/02/20 00:23:38;;;;;;;2.58;1.08;;;16.70;49.20;;;;;;5074339;28;20194;-65
2023/02/20 00:26:08;;;;;;;4.13;1.60;;;16.70;49.20;;;;;;5054500;28;20289;-69
2023/02/20 00:28:35;;;;;;;2.78;1.23;;;16.70;49.20;;;;;;5054326;28;20238;-68
2023/02/20 00:31:02;;;;;;;1.63;1.10;;;16.70;49.20;;;;;;5054133;28;20265;-68
2023/02/20 00:33:30;;;;;;;2.33;1.30;;;16.70;49.10;;;;;;5054277;28;20239;-68
2023/02/20 00:35:58;;;;;;;2.72;1.13;;;16.70;49.10;;;;;;5056867;28;20234;-68
2023/02/20 00:38:26;;;;;;;1.77;1.30;;;16.70;49.20;;;;;;5074043;28;20237;-68
2023/02/20 00:40:53;;;;;;;2.95;1.27;;;16.60;49.10;;;;;;5074263;28;20214;-68
2023/02/20 00:43:20;;;;;;;2.03;1.23;;;16.70;49.20;;;;;;5073800;28;20241;-68
2023/02/20 00:45:47;;;;;;;3.10;1.20;;;16.70;49.20;;;;;;5073698;28;20284;-68
2023/02/20 00:48:14;;;;;;;2.60;1.15;;;16.70;49.10;;;;;;5073811;28;20195;-68
2023/02/20 00:50:41;;;;;;;2.15;1.38;;;16.60;49.10;;;;;;5073607;28;20230;-66
2023/02/20 00:53:09;;;;;;;1.50;0.95;;;16.60;49.10;;;;;;5073817;28;20187;-68
2023/02/20 00:55:37;;;;;;;2.42;1.40;;;16.60;49.10;;;;;;5073979;28;20218;-69
2023/02/20 00:58:04;;;;;;;1.73;1.23;;;16.60;49.10;;;;;;5073482;28;20604;-69
2023/02/20 01:00:31;;;;;;;1.00;0.73;;;16.60;49.00;;;;;;5073316;28;20258;-69
2023/02/20 01:02:58;;;;;;;2.55;1.20;;;16.60;49.00;;;;;;5073356;28;20187;-68
2023/02/20 01:05:25;;;;;;;2.25;1.02;;;16.60;49.00;;;;;;5073583;28;20214;-68
2023/02/20 01:07:53;;;;;;;1.10;1.00;;;16.60;49.10;;;;;;5073550;28;20628;-68
2023/02/20 01:10:21;;;;;;;1.20;1.10;;;16.60;49.00;;;;;;5073518;28;20571;-68
2023/02/20 01:12:48;;;;;;;1.25;1.00;;;16.60;49.10;;;;;;5072921;28;20602;-68
2023/02/20 01:15:16;;;;;;;1.73;1.20;;;16.60;49.00;;;;;;5073158;28;20215;-68
2023/02/20 01:17:43;;;;;;;4.40;1.10;;;16.60;49.00;;;;;;5073365;28;20191;-68
2023/02/20 01:20:11;;;;;;;1.50;1.00;;;16.60;49.10;;;;;;5073336;28;20348;-68
2023/02/20 01:22:38;;;;;;;3.13;1.08;;;16.60;49.10;;;;;;5073291;28;20191;-69
2023/02/20 01:25:06;;;;;;;2.05;1.00;;;16.60;49.10;;;;;;5072834;28;20249;-68
2023/02/20 01:27:34;;;;;;;1.15;1.05;;;16.60;49.10;;;;;;5073156;28;20244;-67
2023/02/20 01:30:02;;;;;;;3.03;1.35;;;16.60;49.10;;;;;;5073283;28;20187;-69
2023/02/20 01:32:29;;;;;;;2.10;1.10;;;16.60;49.10;;;;;;5073110;28;20202;-68
2023/02/20 01:34:56;;;;;;;2.58;0.93;;;16.60;49.00;;;;;;5072990;28;20232;-68
2023/02/20 01:37:23;;;;;;;1.67;1.10;;;16.60;49.00;;;;;;5072758;28;20187;-68
2023/02/20 01:39:51;;;;;;;2.10;1.23;;;16.60;49.00;;;;;;5073037;28;20260;-68
2023/02/20 01:42:21;;;;;;;4.43;1.30;;;16.60;49.00;;;;;;5072939;28;20278;-68
2023/02/20 01:44:50;;;;;;;1.80;1.10;;;16.60;49.00;;;;;;5072863;28;20190;-68
2023/02/20 01:47:19;;;;;;;1.77;1.10;;;16.60;49.00;;;;;;5072633;28;20299;-67
2023/02/20 01:49:52;;;;;;;1.88;1.02;;;16.60;49.00;;;;;;5072285;28;20195;-69
2023/02/20 01:52:22;;;;;;;1.80;1.00;;;16.60;49.00;;;;;;5072478;28;20191;-66
2023/02/20 01:54:52;;;;;;;1.23;1.08;;;16.60;49.00;;;;;;5072450;28;20649;-69
2023/02/20 01:57:23;;;;;;;1.23;1.13;;;16.60;49.00;;;;;;5072653;28;20628;-68
2023/02/20 01:59:58;;;;;;;1.80;1.10;;;16.60;49.00;;;;;;5072753;28;20191;-67
2023/02/20 02:02:28;;;;;;;2.95;1.17;;;16.60;49.00;;;;;;5071963;28;20190;-69
2023/02/20 02:04:55;;;;;;;2.03;1.10;;;16.60;49.00;;;;;;5072126;28;20186;-69
2023/02/20 02:07:22;;;;;;;1.65;0.90;;;16.60;49.00;;;;;;5072145;28;20226;-67
2023/02/20 02:09:53;;;;;;;1.77;0.90;;;16.60;49.00;;;;;;5072596;28;20189;-68
2023/02/20 02:12:21;;;;;;;2.63;1.20;;;16.60;49.00;;;;;;5072435;28;20619;-66
2023/02/20 02:14:48;;;;;;;2.40;1.30;;;16.60;49.00;;;;;;5071950;28;20244;-66
2023/02/20 02:17:56;;;;;;;1.30;1.10;;;16.60;49.00;;;;;;5072052;28;20368;-68
2023/02/20 02:20:54;;;;;;;2.00;1.20;;;16.60;49.00;;;;;;5072665;28;20214;-68
2023/02/20 02:23:40;;;;;;;1.75;0.95;;;16.60;49.00;;;;;;5072091;28;20195;-68
2023/02/20 02:26:30;;;;;;;2.38;1.10;;;16.50;48.90;;;;;;5071988;28;20222;-68
2023/02/20 02:29:23;;;;;;;1.15;0.80;;;16.50;49.00;;;;;;5072037;28;20249;-68
2023/02/20 02:32:22;;;;;;;1.50;0.90;;;16.50;49.00;;;;;;5072671;28;20226;-67
2023/02/20 02:35:21;;;;;;;1.45;1.00;;;16.50;48.90;;;;;;5071505;28;20600;-68
2023/02/20 02:38:00;;;;;;;1.13;0.95;;;16.50;49.00;;;;;;5051020;28;20203;-68
2023/02/20 02:40:37;;;;;;;1.25;1.13;;;16.50;49.00;;;;;;5072292;28;20190;-67
2023/02/20 02:43:11;;;;;;;1.73;1.10;;;16.50;49.00;;;;;;5072218;28;20187;-69
2023/02/20 02:45:45;;;;;;;1.20;1.10;;;16.50;49.00;;;;;;5071942;28;20720;-68
2023/02/20 02:48:20;;;;;;;1.33;1.13;;;16.50;49.00;;;;;;5071893;28;20214;-69
2023/02/20 02:50:49;;;;;;;1.20;1.10;;;16.50;49.00;;;;;;5072224;28;20218;-66
2023/02/20 02:53:18;;;;;;;1.48;0.90;;;16.50;48.90;;;;;;5072169;28;20191;-67
2023/02/20 02:55:45;;;;;;;1.92;0.98;;;16.50;48.90;;;;;;5036862;28;20223;-68
2023/02/20 02:58:15;;;;;;;1.45;1.00;;;16.50;48.90;;;;;;5071460;28;20771;-69
2023/02/20 03:00:46;;;;;;;1.52;1.00;;;16.50;48.90;;;;;;5071738;28;20215;-65
2023/02/20 03:03:19;;;;;;;0.93;0.73;;;16.50;49.00;;;;;;5072023;28;20187;-68
2023/02/20 03:05:50;;;;;;;1.92;0.95;;;16.50;48.90;;;;;;5071939;28;20222;-69
2023/02/20 03:08:30;;;;;;;1.65;1.00;;;16.50;48.90;;;;;;5071166;28;20704;-68
2023/02/20 03:11:01;;;;;;;1.13;1.00;;;16.50;48.90;;;;;;5051937;28;20308;-67
2023/02/20 03:16:21;;;;;;;1.10;1.00;;;16.50;48.90;;;;;;5054404;28;20234;-68
2023/02/20 03:18:50;;;;;;;1.52;1.00;;;16.50;48.90;;;;;;5055461;28;20241;-68
2023/02/20 03:21:20;;;;;;;1.20;1.02;;;16.50;48.90;;;;;;5062395;28;20219;-68
2023/02/20 03:23:55;;;;;;;1.00;0.88;;;16.50;48.90;;;;;;5075525;28;20241;-68
2023/02/20 03:26:28;;;;;;;2.03;1.00;;;16.50;48.90;;;;;;5075477;28;20271;-68
2023/02/20 03:28:59;;;;;;;1.13;0.85;;;16.50;48.90;;;;;;5075525;28;20240;-67
2023/02/20 03:31:32;;;;;;;1.00;1.00;;;16.50;48.90;;;;;;5075490;28;20218;-67
2023/02/20 03:45:19;;;;;;;1.02;0.90;;;16.50;48.80;;;;;;5074570;28;20692;-67
2023/02/20 03:47:51;;;;;;;2.47;1.10;;;16.50;48.90;;;;;;5075161;28;20276;-68
2023/02/20 03:50:19;;;;;;;1.17;0.90;;;16.50;48.90;;;;;;5075165;28;20669;-68
2023/02/20 03:52:46;;;;;;;1.73;0.85;;;16.50;48.80;;;;;;5075307;28;20280;-69
2023/02/20 03:55:15;;;;;;;1.63;0.70;;;16.40;48.70;;;;;;5075261;28;20187;-67
2023/02/20 03:57:49;;;;;;;2.35;1.10;;;16.50;48.90;;;;;;5074674;28;20215;-66
2023/02/20 04:00:20;;;;;;;2.20;0.98;;;16.50;48.90;;;;;;5074980;28;20195;-68
2023/02/20 04:02:49;;;;;;;1.50;0.90;;;16.40;48.80;;;;;;5074881;28;20214;-68
2023/02/20 04:05:20;;;;;;;0.80;0.80;;;16.40;48.80;;;;;;5074848;28;20186;-68
2023/02/20 04:07:53;;;;;;;1.77;1.17;;;16.40;48.80;;;;;;5075161;28;20234;-68
2023/02/20 04:10:25;;;;;;;2.63;1.00;;;16.50;48.90;;;;;;5074644;28;20415;-68
2023/02/20 04:12:56;;;;;;;0.90;0.90;;;16.40;49.40;;;;;;5074881;28;20215;-68
2023/02/20 04:15:25;;;;;;;1.13;0.88;;;16.40;48.80;;;;;;5074453;28;20186;-67
2023/02/20 04:17:55;;;;;;;1.70;0.90;;;16.40;48.80;;;;;;5074843;28;20219;-68
2023/02/20 04:20:22;;;;;;;1.13;0.80;;;16.40;48.80;;;;;;5074270;28;20229;-69
2023/02/20 04:22:53;;;;;;;1.48;0.90;;;16.40;48.80;;;;;;5073473;28;20241;-65
2023/02/20 04:25:33;;;;;;;1.08;0.85;;;16.40;48.80;;;;;;5074222;28;20190;-68
2023/02/20 04:28:00;;;;;;;1.08;0.98;;;16.40;48.80;;;;;;5071726;28;20755;-65
2023/02/20 04:30:28;;;;;;;2.33;1.00;;;16.40;48.70;;;;;;5074372;28;20252;-68
2023/02/20 04:32:55;;;;;;;1.80;1.10;;;16.40;48.70;;;;;;5074006;28;20222;-68
2023/02/20 04:35:23;;;;;;;1.55;1.13;;;16.40;48.70;;;;;;5054182;28;20238;-68
2023/02/20 04:37:50;;;;;;;1.73;0.98;;;16.40;48.70;;;;;;5054149;28;20219;-69
2023/02/20 04:40:19;;;;;;;1.25;0.80;;;16.40;48.70;;;;;;5053952;28;20250;-69
2023/02/20 04:42:48;;;;;;;1.38;1.00;;;16.40;48.70;;;;;;5054470;28;20219;-69
2023/02/20 04:45:16;;;;;;;2.45;1.00;;;16.40;48.70;;;;;;5055747;28;20188;-68
2023/02/20 04:47:43;;;;;;;1.75;0.88;;;16.40;48.80;;;;;;5073869;28;20226;-68
2023/02/20 04:50:13;;;;;;;1.75;0.90;;;16.40;48.80;;;;;;5073973;28;20186;-68
2023/02/20 04:52:40;;;;;;;1.15;0.60;;;16.40;48.80;;;;;;5073976;28;20219;-69
2023/02/20 04:55:08;;;;;;;1.33;0.80;;;16.40;48.80;;;;;;5073974;28;20187;-67
2023/02/20 04:57:35;;;;;;;1.33;1.17;;;16.40;48.80;;;;;;5073172;28;20210;-68
2023/02/20 05:00:06;;;;;;;0.85;0.70;;;16.40;48.70;;;;;;5073611;28;20245;-68
2023/02/20 05:02:33;;;;;;;2.10;1.00;;;16.40;48.80;;;;;;5073402;28;20309;-68
2023/02/20 05:05:00;;;;;;;1.83;0.80;;;16.40;48.70;;;;;;5073465;28;20199;-68
2023/02/20 05:07:27;;;;;;;0.88;0.80;;;16.40;48.70;;;;;;5073841;28;20230;-68
2023/02/20 05:09:54;;;;;;;1.25;1.02;;;16.40;48.70;;;;;;5073299;28;20199;-68
2023/02/20 05:12:21;;;;;;;1.85;1.33;;;16.40;48.70;;;;;;5073766;28;20218;-68
2023/02/20 05:14:48;;;;;;;1.02;0.93;;;16.40;48.80;;;;;;5073489;28;20194;-68
2023/02/20 05:17:17;;;;;;;1.27;1.05;;;16.30;48.70;;;;;;5073030;28;20234;-67
2023/02/20 05:19:44;;;;;;;0.80;0.80;;;16.40;48.80;;;;;;5073677;28;20252;-68
2023/02/20 05:22:20;;;;;;;1.13;0.90;;;16.40;48.70;;;;;;5072916;28;20219;-67
2023/02/20 05:24:50;;;;;;;1.70;0.82;;;16.40;48.80;;;;;;5073109;28;20273;-68
2023/02/20 05:27:20;;;;;;;1.70;0.85;;;16.40;48.80;;;;;;5072894;28;20230;-68
2023/02/20 05:29:49;;;;;;;1.45;0.90;;;16.30;48.70;;;;;;5073143;28;20187;-67
2023/02/20 05:32:19;;;;;;;1.52;0.98;;;16.40;48.80;;;;;;5072380;28;20723;-68
2023/02/20 05:34:47;;;;;;;1.00;0.90;;;16.40;48.80;;;;;;5072800;28;20187;-68
2023/02/20 05:37:16;;;;;;;1.50;1.00;;;16.30;48.70;;;;;;5072828;28;20215;-68
2023/02/20 05:39:44;;;;;;;0.70;0.70;;;16.40;48.80;;;;;;5072655;28;20633;-67
2023/02/20 05:42:11;;;;;;;0.93;0.82;;;16.40;48.80;;;;;;5072712;28;20210;-67
2023/02/20 05:44:39;;;;;;;1.13;0.80;;;16.40;48.80;;;;;;5072700;28;20248;-69
2023/02/20 05:47:07;;;;;;;1.15;0.93;;;16.40;48.80;;;;;;5072713;28;20210;-69
2023/02/20 05:49:37;;;;;;;2.80;0.80;;;16.40;48.80;;;;;;5072900;28;20187;-68
2023/02/20 05:52:10;;;;;;;1.08;0.90;;;16.40;48.70;;;;;;5072540;28;20692;-68
2023/02/20 05:54:37;;;;;;;0.88;0.88;;;16.40;48.70;;;;;;5072729;28;20195;-68
2023/02/20 05:57:05;;;;;;;1.67;0.90;;;16.40;48.70;;;;;;5072451;28;20218;-68
2023/02/20 05:59:32;;;;;;;2.15;0.90;;;16.50;48.70;;;;;;5072380;28;20229;-67
2023/02/20 06:02:00;;;;;;;1.55;0.77;;;16.50;48.60;;;;;;5072336;28;20214;-67
2023/02/20 06:04:28;;;;;;;1.10;0.98;;;16.60;48.70;;;;;;5072705;28;20195;-68
2023/02/20 06:06:57;;;;;;;1.95;1.02;;;16.60;48.60;;;;;;5072395;28;20256;-68
2023/02/20 06:09:24;;;;;;;1.60;0.90;;;16.70;48.70;;;;;;5071903;28;20211;-68
2023/02/20 06:11:53;;;;;;;5.80;1.20;;;16.70;48.70;;;;;;5072264;28;20223;-71
2023/02/20 06:14:21;;;;;;;1.63;1.00;;;16.80;49.70;;;;;;5072610;28;20197;-67
2023/02/20 06:16:48;;;;;;;6.22;1.20;;;16.90;48.50;;;;;;5072280;28;20230;-65
2023/02/20 06:19:21;;;;;;;6.65;1.10;;;16.80;48.30;;;;;;5072811;28;20203;-64
2023/02/20 06:21:49;;;;;;;2.47;1.08;;;16.80;48.50;;;;;;5072241;28;20301;-63
2023/02/20 06:24:18;;;;;;;2.35;1.00;;;16.80;48.80;;;;;;5072348;28;20269;-65
2023/02/20 06:26:45;;;;;;;4.60;1.20;;;16.80;49.10;;;;;;5072234;28;20219;-65
2023/02/20 06:29:15;;;;;;;1.80;1.13;;;16.70;49.20;;;;;;5071969;28;20268;-69
2023/02/20 06:31:42;;;;;;;3.35;1.08;;;16.70;49.40;;;;;;5071937;28;20279;-64
2023/02/20 06:34:10;;;;;;;2.40;1.20;;;16.70;49.30;;;;;;5052091;28;20202;-65
2023/02/20 06:36:39;;;;;;;3.08;1.00;;;16.70;49.20;;;;;;5052237;28;20258;-68
2023/02/20 06:39:09;;;;;;;3.38;1.10;;;16.70;49.00;;;;;;5052322;28;20341;-66
2023/02/20 06:41:38;;;;;;;2.42;0.90;;;16.60;48.80;;;;;;5051879;28;20191;-68
2023/02/20 06:44:05;;;;;;;2.22;1.60;;;16.70;48.80;;;;;;5055626;28;20179;-62
2023/02/20 06:46:32;;;;;;;2.28;1.40;;;16.70;48.70;;;;;;5072125;28;20195;-62
2023/02/20 06:48:59;;;;;;;3.95;1.33;;;16.60;48.50;;;;;;5072352;28;20272;-65
2023/02/20 06:51:29;;;;;;;1.95;1.00;;;16.60;48.30;;;;;;5076244;28;20187;-69
2023/02/20 06:53:57;;;;;;;1.70;1.33;;;16.60;48.10;;;;;;5076204;28;20202;-66
2023/02/20 06:56:27;;;;;;;2.58;1.40;;;16.50;48.00;;;;;;5076092;28;20190;-69
2023/02/20 06:58:56;;;;;;;2.15;1.33;;;16.50;48.00;;;;;;5076145;28;20218;-63
2023/02/20 07:01:27;;;;;;;3.25;1.30;;;16.50;48.00;;;;;;5075620;28;20248;-65
2023/02/20 07:03:54;;;;;;;3.08;1.05;;;16.50;48.00;;;;;;5076239;28;20218;-67
2023/02/20 07:06:22;;;;;;;2.65;0.95;;;16.40;47.90;;;;;;5075636;28;20193;-70
2023/02/20 07:08:50;;;;;;;2.90;1.10;;;16.50;48.00;;;;;;5075274;28;20639;-69
2023/02/20 07:11:18;;;;;;;1.83;1.20;;;16.40;47.90;;;;;;5075808;28;20240;-69
2023/02/20 07:13:45;;;;;;;3.92;1.20;;;16.40;47.90;;;;;;5075647;28;20221;-70
2023/02/20 07:16:15;;;;;;;1.85;1.10;;;16.40;47.90;;;;;;5075096;28;20714;-69
2023/02/20 07:18:42;;;;;;;4.10;1.20;;;16.40;47.90;;;;;;5075626;28;20309;-62
2023/02/20 07:21:10;;;;;;;2.05;1.20;;;16.40;47.90;;;;;;5074963;28;20191;-74
2023/02/20 07:23:37;;;;;;;5.35;1.05;;;16.40;47.90;;;;;;5075717;28;20268;-73
2023/02/20 07:26:04;;;;;;;2.55;1.02;;;16.40;47.90;;;;;;5075278;28;20186;-75
2023/02/20 07:28:34;;;;;;;3.20;1.20;;;16.40;47.90;;;;;;5075360;28;20626;-74
2023/02/20 07:31:01;;;;;;;4.80;1.15;;;16.50;48.00;;;;;;5075262;28;20190;-74
2023/02/20 07:33:30;;;;;;;2.97;1.20;;;16.50;48.00;;;;;;5039853;28;20302;-74
2023/02/20 07:35:57;;;;;;;3.03;1.20;;;16.60;48.00;;;;;;5075106;28;20191;-74
2023/02/20 07:38:27;;;;;;;1.80;1.13;;;16.70;48.00;;;;;;5075518;28;20218;-74
2023/02/20 07:40:59;;;;;;;2.10;1.00;;;16.70;47.90;;;;;;5075006;28;20277;-75
2023/02/20 07:43:26;;;;;;;2.30;0.98;;;16.80;47.90;;;;;;5073742;28;20260;-75
2023/02/20 07:45:59;;;;;;;1.75;1.00;;;16.80;47.90;;;;;;5074851;28;20551;-74
2023/02/20 07:48:27;;;;;;;2.08;0.90;;;16.90;47.90;;;;;;5074768;28;20800;-74
2023/02/20 07:50:56;;;;;;;2.65;1.10;;;16.90;47.80;;;;;;5075109;28;20186;-69
2023/02/20 07:53:23;;;;;;;1.88;1.13;;;17.00;47.80;;;;;;5075162;28;20223;-72
2023/02/20 07:55:52;;;;;;;2.72;1.05;;;17.00;47.70;;;;;;5075004;28;20630;-71
2023/02/20 07:58:19;;;;;;;3.78;1.15;;;17.00;47.70;;;;;;5074397;28;20230;-75
2023/02/20 08:00:49;;;;;;;1.95;0.90;;;17.10;47.70;;;;;;5073798;28;20269;-72
2023/02/20 08:03:17;;;;;;;3.88;1.00;;;17.10;47.70;;;;;;5074525;28;20219;-75
2023/02/20 08:05:44;;;;;;;1.60;1.00;;;17.20;47.60;;;;;;5085846;28;20282;-68
2023/02/20 08:08:13;;;;;;;2.22;0.80;;;17.20;47.60;;;;;;5060965;28;20266;-72
2023/02/20 08:10:40;;;;;;;3.47;1.15;;;17.30;47.60;;;;;;5073950;28;20187;-70
2023/02/20 08:13:08;;;;;;;2.67;1.10;;;17.30;47.60;;;;;;5074086;28;20221;-71
2023/02/20 08:15:35;;;;;;;5.95;1.00;;;17.30;47.50;;;;;;5073569;28;20222;-72
2023/02/20 08:18:02;;;;;;;2.63;1.17;;;17.40;47.60;;;;;;5060394;28;20227;-68
2023/02/20 08:20:29;;;;;;;1.23;1.00;;;17.40;47.60;;;;;;5060530;28;20627;-69
2023/02/20 08:22:59;;;;;;;1.10;1.00;;;17.50;47.60;;;;;;5078631;28;20210;-67
2023/02/20 08:25:28;;;;;;;1.80;1.15;;;17.50;47.50;;;;;;5074071;28;20312;-66
2023/02/20 08:27:55;;;;;;;1.10;1.10;;;17.60;47.50;;;;;;5064103;28;20226;-71
2023/02/20 08:30:24;;;;;;;2.15;1.02;;;17.60;47.40;;;;;;5060070;28;20199;-71
2023/02/20 08:32:51;;;;;;;2.42;0.93;;;17.60;47.30;;;;;;5065394;28;20234;-64
2023/02/20 08:35:24;;;;;;;3.47;0.90;;;17.60;47.40;;;;;;5073481;28;20203;-64
2023/02/20 08:37:53;;;;;;;8.77;1.00;;;17.60;47.30;;;;;;5064446;28;20301;-67
2023/02/20 08:40:22;;;;;;;2.63;1.00;;;17.60;47.30;;;;;;5050654;28;20203;-62
2023/02/20 08:42:53;;;;;;;2.10;1.00;;;17.60;47.40;;;;;;5066917;28;20214;-64
2023/02/20 08:45:23;;;;;;;1.70;0.98;;;17.70;47.40;;;;;;5050543;28;20260;-68
2023/02/20 08:47:53;;;;;;;3.25;1.45;;;17.60;47.30;;;;;;5071245;28;20301;-68
2023/02/20 08:50:21;;;;;;;3.33;1.10;;;17.70;47.50;;;;;;5068935;28;20233;-64
2023/02/20 08:52:53;;;;;;;1.85;1.00;;;17.60;47.40;;;;;;5028295;28;20307;-66
2023/02/20 08:55:28;;;;;;;1.90;1.00;;;17.70;47.50;;;;;;5067564;28;20254;-69
2023/02/20 08:57:58;;;;;;;1.77;1.00;;;17.70;47.40;;;;;;5063461;28;20302;-66
2023/02/20 09:00:26;;;;;;;2.63;1.00;;;17.70;47.50;;;;;;5070867;28;20214;-69
2023/02/20 09:02:54;;;;;;;1.45;1.20;;;17.70;47.50;;;;;;5047382;28;20313;-63
2023/02/20 09:05:23;;;;;;;2.28;0.90;;;17.80;47.50;;;;;;5068236;28;20232;-64
2023/02/20 09:07:53;;;;;;;3.65;1.00;;;17.80;47.50;;;;;;5051765;28;20688;-63
2023/02/20 09:10:23;;;;;;;5.55;1.30;;;17.80;47.60;;;;;;5070696;28;20264;-69
2023/02/20 09:12:51;;;;;;;1.30;0.95;;;17.80;47.50;;;;;;5064986;28;20230;-71
2023/02/20 09:15:23;;;;;;;1.98;1.10;;;17.90;47.60;;;;;;5034919;28;20688;-68
2023/02/20 09:17:54;;;;;;;1.13;1.00;;;17.90;47.60;;;;;;5061410;28;20344;-68
2023/02/20 09:20:30;;;;;;;1.95;1.20;;;17.90;47.60;;;;;;5060029;28;20203;-70
2023/02/20 09:23:01;;;;;;;6.07;1.23;;;17.90;47.60;;;;;;5042080;28;20262;-69
2023/02/20 09:25:30;;;;;;;1.55;0.95;;;17.90;47.60;;;;;;5015722;28;20289;-66
2023/02/20 09:27:59;;;;;;;2.53;1.05;;;17.90;47.90;;;;;;5064358;28;20219;-69
2023/02/20 09:30:33;;;;;;;1.52;1.20;;;18.00;47.60;;;;;;5035430;28;20720;-64
2023/02/20 09:33:04;;;;;;;3.58;1.10;;;18.00;47.60;;;;;;5017304;28;20235;-70
2023/02/20 09:35:33;;;;;;;1.10;0.98;;;18.00;47.50;;;;;;5067229;28;20226;-69
2023/02/20 09:38:10;;;;;;;3.15;0.90;;;18.00;47.50;;;;;;5069537;28;20223;-70
2023/02/20 09:40:38;;;;;;;2.60;1.20;;;18.00;47.50;;;;;;5070000;28;20271;-65
2023/02/20 09:43:23;;;;;;;1.70;1.00;;;18.10;47.60;;;;;;5063554;28;20775;-67
2023/02/20 09:46:02;;;;;;;3.80;1.08;;;18.10;47.50;;;;;;5070101;28;20198;-65
2023/02/20 09:48:45;;;;;;;1.23;0.93;;;18.10;47.50;;;;;;5065176;28;20222;-65
2023/02/20 09:51:21;;;;;;;1.88;0.90;;;18.10;47.50;;;;;;5069351;28;20648;-62
2023/02/20 09:53:57;;;;;;;1.35;1.00;;;18.10;47.50;;;;;;5070209;28;20222;-70
2023/02/20 09:56:28;;;;;;;1.52;1.27;;;18.10;47.40;;;;;;5001255;28;20210;-63
2023/02/20 09:59:04;;;;;;;1.48;1.10;;;18.10;47.40;;;;;;5070866;28;20297;-62
2023/02/20 10:01:38;;;;;;;2.50;1.20;;;18.20;47.50;;;;;;5049190;28;20216;-65
2023/02/20 10:04:11;;;;;;;3.67;1.30;;;18.20;47.50;;;;;;5034451;28;20258;-68
2023/02/20 10:06:42;;;;;;;1.25;1.15;;;18.20;47.50;;;;;;5069066;28;20198;-62
2023/02/20 10:09:13;;;;;;;2.00;1.13;;;18.20;47.40;;;;;;5061255;28;20259;-68
2023/02/20 10:11:48;;;;;;;2.10;1.42;;;18.20;47.40;;;;;;5064373;28;20203;-68
2023/02/20 10:14:44;;;;;;;1.58;1.15;;;18.30;47.40;;;;;;5068887;28;20230;-67
2023/02/20 10:17:27;;;;;;;2.25;1.05;;;18.30;47.40;;;;;;5051893;28;20261;-67
2023/02/20 10:20:04;;;;;;;2.05;1.20;;;18.30;47.40;;;;;;5069625;28;20708;-68
2023/02/20 10:22:34;;;;;;;1.30;1.10;;;18.30;47.30;;;;;;5055253;28;20195;-70
2023/02/20 10:25:11;;;;;;;1.42;0.90;;;18.30;47.30;;;;;;5050796;28;20306;-68
2023/02/20 10:27:54;;;;;;;1.30;1.02;;;18.30;47.20;;;;;;5069615;28;20214;-67
2023/02/20 10:30:28;;;;;;;1.40;1.20;;;18.30;47.20;;;;;;5069173;28;20261;-66
2023/02/20 10:33:17;;;;;;;2.75;1.10;;;18.30;47.20;;;;;;5062774;28;20198;-64
2023/02/20 10:35:48;;;;;;;3.72;1.08;;;18.40;47.30;;;;;;5070683;28;20273;-67
2023/02/20 10:38:29;;;;;;;1.48;0.95;;;18.40;47.30;;;;;;5069105;28;20248;-69
2023/02/20 10:41:03;;;;;;;2.42;1.30;;;18.40;47.20;;;;;;5069643;28;20201;-63
2023/02/20 10:43:39;;;;;;;1.67;1.02;;;18.40;47.20;;;;;;5061938;28;20221;-67
2023/02/20 10:46:14;;;;;;;2.22;1.20;;;18.40;47.20;;;;;;5000000;28;20264;-69
2023/02/20 10:48:44;;;;;;;1.55;1.20;;;18.40;47.30;;;;;;5064073;28;20260;-68
2023/02/20 10:51:15;;;;;;;2.03;1.55;;;18.40;47.20;;;;;;5067882;28;20194;-62
2023/02/20 10:53:47;;;;;;;2.17;1.40;;;18.40;47.20;;;;;;5069575;28;20226;-68
2023/02/20 10:56:19;;;;;;;1.58;1.05;;;18.50;47.20;;;;;;5069007;28;20214;-67
2023/02/20 10:58:53;;;;;;;3.67;1.40;;;18.40;47.10;;;;;;5069817;28;20222;-65
2023/02/20 11:01:23;;;;;;;2.00;1.23;;;18.50;47.80;;;;;;5065512;28;20205;-62
2023/02/20 11:03:58;;;;;;;1.17;1.08;;;18.50;47.10;;;;;;5064180;28;20218;-63
2023/02/20 11:06:30;;;;;;;1.60;1.17;;;18.50;47.10;;;;;;5069190;28;20203;-66
2023/02/20 11:08:57;;;;;;;2.03;1.00;;;18.50;47.00;;;;;;5069371;28;20219;-64
2023/02/20 11:11:30;;;;;;;2.53;1.10;;;18.50;47.00;;;;;;5066152;28;20194;-62
2023/02/20 11:13:59;;;;;;;1.48;1.30;;;18.50;46.90;;;;;;5064250;28;20708;-67
2023/02/20 11:16:32;;;;;;;3.65;1.10;;;18.60;47.00;;;;;;5068279;28;20317;-67
2023/02/20 11:19:08;;;;;;;1.60;0.90;;;18.60;47.00;;;;;;5069402;28;20583;-63
2023/02/20 11:21:41;;;;;;;1.55;1.17;;;18.60;46.90;;;;;;5063587;28;20195;-69
2023/02/20 11:24:30;;;;;;;2.33;1.30;;;18.60;46.90;;;;;;5065279;28;20668;-68
2023/02/20 11:27:03;;;;;;;2.22;1.33;;;18.60;46.80;;;;;;5069220;28;20199;-66
2023/02/20 11:29:48;;;;;;;2.25;1.20;;;18.60;46.80;;;;;;5059159;28;20321;-68
2023/02/20 11:32:25;;;;;;;1.10;0.93;;;18.60;46.70;;;;;;5060885;28;20199;-68
2023/02/20 11:35:14;;;;;;;2.80;1.10;;;18.60;46.70;;;;;;5057453;28;20218;-64
2023/02/20 11:37:42;;;;;;;2.08;1.20;;;18.60;46.70;;;;;;5072399;28;20203;-68
2023/02/20 11:40:17;;;;;;;1.70;1.10;;;18.50;46.60;;;;;;5072353;28;20218;-64
2023/02/20 11:42:44;;;;;;;1.35;1.25;;;18.60;46.60;;;;;;5069995;28;20687;-67
2023/02/20 11:45:15;;;;;;;1.55;1.13;;;18.60;46.60;;;;;;5072786;28;20264;-64
2023/02/20 11:47:42;;;;;;;7.07;1.48;;;18.60;46.60;;;;;;5072873;28;20209;-68
2023/02/20 11:50:17;;;;;;;2.38;1.20;;;18.60;46.60;;;;;;5072695;28;20234;-67
2023/02/20 11:53:01;;;;;;;1.13;1.00;;;18.60;46.60;;;;;;5069982;28;20272;-70
2023/02/20 11:55:29;;;;;;;1.38;1.20;;;18.60;46.60;;;;;;5073235;28;20312;-67
2023/02/20 11:57:56;;;;;;;1.90;1.10;;;18.60;46.60;;;;;;5072237;28;20282;-71
2023/02/20 12:00:25;;;;;;;1.83;1.10;;;18.60;46.60;;;;;;5072761;28;20279;-68
2023/02/20 12:02:55;;;;;;;1.40;1.10;;;18.60;46.50;;;;;;5069719;28;20283;-70
2023/02/20 12:05:37;;;;;;;1.52;0.90;;;18.60;46.50;;;;;;5072264;28;20284;-67
2023/02/20 12:08:41;;;;;;;1.58;1.00;;;18.60;46.50;;;;;;5071874;28;20199;-66
2023/02/20 12:11:10;;;;;;;1.20;1.10;;;18.60;46.50;;;;;;5057134;28;20226;-61
2023/02/20 12:13:43;;;;;;;1.10;1.00;;;18.60;46.50;;;;;;5071514;28;20643;-66
2023/02/20 12:16:38;;;;;;;1.25;0.90;;;18.60;46.40;;;;;;5072375;28;20276;-62
2023/02/20 12:19:14;;;;;;;1.70;1.20;;;18.60;46.40;;;;;;5071207;28;20214;-71
2023/02/20 12:21:58;;;;;;;1.05;0.95;;;18.60;46.40;;;;;;5069863;28;20574;-70
2023/02/20 12:24:47;;;;;;;2.10;1.00;;;18.60;46.40;;;;;;5072368;28;20236;-69
2023/02/20 12:27:33;;;;;;;1.10;1.00;;;18.60;46.40;;;;;;5057132;28;20584;-69
2023/02/20 12:30:13;;;;;;;1.00;0.90;;;18.60;46.40;;;;;;5067839;28;20242;-67
2023/02/20 12:32:54;;;;;;;1.38;1.00;;;18.60;46.30;;;;;;5068673;28;20199;-68
2023/02/20 12:35:31;;;;;;;1.00;0.80;;;18.60;46.30;;;;;;5057747;28;20226;-67
2023/02/20 12:38:32;;;;;;;1.42;1.10;;;18.60;46.30;;;;;;5063944;28;20570;-62
2023/02/20 12:41:21;;;;;;;1.50;1.30;;;18.60;46.30;;;;;;5068639;28;20634;-62
2023/02/20 12:44:01;;;;;;;1.23;0.80;;;18.60;46.20;;;;;;5069404;28;20714;-61
2023/02/20 12:46:34;;;;;;;1.17;1.08;;;18.60;46.30;;;;;;5064397;28;20277;-63
2023/02/20 12:49:16;;;;;;;1.20;1.10;;;18.70;46.30;;;;;;5068967;28;20280;-61
2023/02/20 12:51:51;;;;;;;2.88;1.13;;;18.70;46.30;;;;;;5064402;28;20260;-62
2023/02/20 12:54:31;;;;;;;1.48;1.13;;;18.70;46.30;;;;;;5068001;28;20630;-66
2023/02/20 12:57:06;;;;;;;1.95;1.40;;;18.60;46.30;;;;;;5070441;28;20194;-63
2023/02/20 12:59:42;;;;;;;4.30;1.17;;;18.60;46.30;;;;;;5067487;28;20226;-67
2023/02/20 13:02:20;;;;;;;4.85;1.05;;;18.60;46.40;;;;;;5060296;28;20560;-67
2023/02/20 13:04:53;;;;;;;2.50;1.15;;;18.60;46.50;;;;;;5070849;28;20683;-70
2023/02/20 13:07:25;;;;;;;2.10;1.23;;;18.60;46.60;;;;;;5069301;28;20195;-65
2023/02/20 13:10:02;;;;;;;3.67;1.23;;;18.60;46.60;;;;;;5064459;28;20244;-66
2023/02/20 13:12:29;;;;;;;1.75;1.00;;;18.70;46.70;;;;;;5065864;28;20218;-62
2023/02/20 13:15:07;;;;;;;2.03;1.00;;;18.60;46.60;;;;;;5069669;28;20227;-61
2023/02/20 13:17:41;;;;;;;1.80;1.15;;;18.60;46.60;;;;;;5063268;28;20226;-70
2023/02/20 13:20:18;;;;;;;1.20;1.10;;;18.60;46.60;;;;;;5068699;28;20226;-64
2023/02/20 13:22:59;;;;;;;4.53;1.13;;;18.70;46.70;;;;;;5065242;28;20241;-66
2023/02/20 13:25:41;;;;;;;2.05;1.35;;;18.70;46.70;;;;;;5059352;28;20231;-62